createdAt,value
2018-10-16T00:01:41.910Z,98071.00
2018-10-16T00:04:11.181Z,98064.00
2018-10-16T00:06:40.168Z,98075.05
2018-10-16T00:09:09.837Z,98077.74
2018-10-16T00:11:42.932Z,98082.34
2018-10-16T00:14:11.950Z,98081.05
2018-10-16T00:16:40.859Z,98078.66
2018-10-16T00:19:09.557Z,98084.30
2018-10-16T00:21:39.471Z,98085.64
2018-10-16T00:24:08.083Z,98087.80
2018-10-16T00:26:38.968Z,98087.52
2018-10-16T00:29:08.312Z,98087.23
2018-10-16T00:31:37.461Z,98097.20
2018-10-16T00:34:06.860Z,98098.02
2018-10-16T00:36:36.465Z,98088.61
2018-10-16T00:39:07.050Z,98091.30
2018-10-16T00:41:36.450Z,98093.70
2018-10-16T00:44:05.867Z,98092.89
2018-10-16T00:46:34.726Z,98091.02
2018-10-16T00:49:04.944Z,98098.30
2018-10-16T00:51:34.416Z,98101.78
2018-10-16T00:54:05.476Z,98098.81
2018-10-16T00:56:34.095Z,98103.13
2018-10-16T00:59:02.796Z,98106.62
2018-10-16T01:01:32.836Z,98106.09
2018-10-16T01:04:03.315Z,98110.91
2018-10-16T01:06:33.275Z,98111.17
2018-10-16T01:09:02.667Z,98110.92
2018-10-16T01:11:32.072Z,98114.95
2018-10-16T01:14:01.070Z,98115.50
2018-10-16T01:16:29.801Z,98115.22
2018-10-16T01:18:58.572Z,98116.03
2018-10-16T01:21:27.876Z,98117.11
2018-10-16T01:23:56.938Z,98118.39
2018-10-16T01:26:25.897Z,98120.83
2018-10-16T01:28:54.621Z,98121.08
2018-10-16T01:31:23.821Z,98123.22
2018-10-16T01:33:52.882Z,98133.14
2018-10-16T01:36:21.645Z,98135.83
2018-10-16T01:38:50.418Z,98124.30
2018-10-16T01:41:19.243Z,98122.69
2018-10-16T01:43:48.741Z,98119.16
2018-10-16T01:46:17.970Z,98124.27
2018-10-16T01:48:46.939Z,98118.09
2018-10-16T01:51:15.660Z,98118.37
2018-10-16T01:53:44.377Z,98120.25
2018-10-16T01:56:13.214Z,98118.90
2018-10-16T01:58:42.205Z,98114.89
2018-10-16T02:01:11.466Z,98123.73
2018-10-16T02:03:40.686Z,98124.77
2018-10-16T02:06:09.503Z,98124.51
2018-10-16T02:08:38.291Z,98128.52
2018-10-16T02:11:08.076Z,98133.11
2018-10-16T02:13:36.697Z,98137.66
2018-10-16T02:16:05.808Z,98138.18
2018-10-16T02:18:36.028Z,98140.34
2018-10-16T02:21:05.420Z,98146.77
2018-10-16T02:23:34.216Z,98142.99
2018-10-16T02:26:02.901Z,98136.83
2018-10-16T02:28:31.887Z,98141.61
2018-10-16T02:31:01.039Z,98144.30
2018-10-16T02:33:29.958Z,98145.12
2018-10-16T02:35:58.697Z,98141.34
2018-10-16T02:38:27.522Z,98146.19
2018-10-16T02:40:57.922Z,98149.41
2018-10-16T02:43:26.687Z,98151.52
2018-10-16T02:45:55.572Z,98151.49
2018-10-16T02:48:24.816Z,98152.84
2018-10-16T02:50:53.892Z,98156.34
2018-10-16T02:53:23.513Z,98157.11
2018-10-16T02:55:52.268Z,98160.05
2018-10-16T02:58:21.808Z,98165.09
2018-10-16T03:00:50.786Z,98167.78
2018-10-16T03:03:19.912Z,98173.86
2018-10-16T03:05:48.738Z,98171.15
2018-10-16T03:08:18.407Z,98170.34
2018-10-16T03:10:47.619Z,98176.50
2018-10-16T03:13:16.805Z,98175.69
2018-10-16T03:15:45.496Z,98180.52
2018-10-16T03:18:14.431Z,98182.66
2018-10-16T03:20:43.246Z,98187.20
2018-10-16T03:23:11.821Z,98187.73
2018-10-16T03:25:40.455Z,98191.19
2018-10-16T03:28:09.311Z,98187.89
2018-10-16T03:30:38.216Z,98189.48
2018-10-16T03:33:07.057Z,98190.02
2018-10-16T03:35:36.566Z,98191.07
2018-10-16T03:38:06.147Z,98194.78
2018-10-16T03:40:35.120Z,98196.17
2018-10-16T03:43:04.016Z,98198.53
2018-10-16T03:45:32.917Z,98200.98
2018-10-16T03:48:01.798Z,98203.08
2018-10-16T03:50:30.552Z,98200.14
2018-10-16T03:52:59.483Z,98196.67
2018-10-16T03:55:28.438Z,98205.20
2018-10-16T03:57:59.965Z,98205.52
2018-10-16T04:00:29.085Z,98206.59
2018-10-16T04:02:58.456Z,98207.93
2018-10-16T04:05:27.367Z,98212.21
2018-10-16T04:07:55.976Z,98220.72
2018-10-16T04:10:26.355Z,98216.59
2018-10-16T04:12:55.296Z,98211.78
2018-10-16T04:15:24.172Z,98217.11
2018-10-16T04:17:54.038Z,98219.27
2018-10-16T04:20:22.791Z,98219.86
2018-10-16T04:22:51.447Z,98215.23
2018-10-16T04:25:20.052Z,98223.20
2018-10-16T04:27:50.287Z,98220.77
2018-10-16T04:30:19.538Z,98220.21
2018-10-16T04:32:49.147Z,98220.47
2018-10-16T04:35:18.523Z,98221.34
2018-10-16T04:37:47.772Z,98215.98
2018-10-16T04:40:16.728Z,98218.73
2018-10-16T04:42:46.088Z,98213.09
2018-10-16T04:45:15.611Z,98223.75
2018-10-16T04:47:45.475Z,98224.23
2018-10-16T04:50:14.337Z,98226.88
2018-10-16T04:52:43.032Z,98232.80
2018-10-16T04:55:12.221Z,98219.86
2018-10-16T04:57:42.600Z,98218.50
2018-10-16T05:00:11.760Z,98227.63
2018-10-16T05:02:41.681Z,98228.77
2018-10-16T05:05:17.427Z,98230.08
2018-10-16T05:07:46.062Z,98230.36
2018-10-16T05:10:15.444Z,98234.11
2018-10-16T05:12:44.501Z,98235.42
2018-10-16T05:15:22.755Z,98233.80
2018-10-16T05:17:52.783Z,98232.37
2018-10-16T05:20:22.462Z,98231.27
2018-10-16T05:22:51.225Z,98233.36
2018-10-16T05:25:20.574Z,98228.50
2018-10-16T05:27:50.417Z,98235.16
2018-10-16T05:30:19.112Z,98231.11
2018-10-16T05:32:48.060Z,98233.00
2018-10-16T05:35:17.697Z,98235.94
2018-10-16T05:37:46.530Z,98237.28
2018-10-16T05:40:15.821Z,98238.59
2018-10-16T05:42:44.745Z,98246.91
2018-10-16T05:45:15.093Z,98241.33
2018-10-16T05:47:45.913Z,98244.81
2018-10-16T05:50:15.418Z,98252.09
2018-10-16T05:52:44.670Z,98251.02
2018-10-16T05:55:13.919Z,98247.52
2018-10-16T05:57:42.768Z,98251.23
2018-10-16T06:00:23.332Z,98246.44
2018-10-16T06:02:51.982Z,98251.80
2018-10-16T06:05:20.802Z,98260.14
2018-10-16T06:07:49.760Z,98261.77
2018-10-16T06:10:18.468Z,98259.69
2018-10-16T06:12:49.563Z,98264.25
2018-10-16T06:15:18.647Z,98269.89
2018-10-16T06:17:47.653Z,98269.66
2018-10-16T06:20:16.867Z,98267.83
2018-10-16T06:22:46.033Z,98275.07
2018-10-16T06:25:14.976Z,98283.71
2018-10-16T06:27:44.061Z,98285.08
2018-10-16T06:30:13.230Z,98284.30
2018-10-16T06:32:41.993Z,98290.52
2018-10-16T06:35:11.739Z,98291.97
2018-10-16T06:37:41.648Z,98291.78
2018-10-16T06:40:11.148Z,98293.69
2018-10-16T06:42:40.332Z,98291.93
2018-10-16T06:45:10.698Z,98302.44
2018-10-16T06:47:39.562Z,98303.00
2018-10-16T06:50:09.746Z,98297.93
2018-10-16T06:52:38.657Z,98297.97
2018-10-16T06:55:07.684Z,98298.56
2018-10-16T06:57:36.477Z,98303.76
2018-10-16T07:00:06.460Z,98307.55
2018-10-16T07:02:35.486Z,98311.10
2018-10-16T07:05:04.907Z,98306.09
2018-10-16T07:07:34.294Z,98307.77
2018-10-16T07:10:03.284Z,98307.01
2018-10-16T07:12:32.237Z,98312.42
2018-10-16T07:15:01.012Z,98312.22
2018-10-16T07:17:29.932Z,98309.31
2018-10-16T07:20:00.618Z,98312.31
2018-10-16T07:22:29.554Z,98314.21
2018-10-16T07:24:58.488Z,98317.98
2018-10-16T07:27:27.995Z,98314.53
2018-10-16T07:29:57.116Z,98321.78
2018-10-16T07:32:25.863Z,98316.14
2018-10-16T07:34:54.678Z,98314.27
2018-10-16T07:37:23.683Z,98317.72
2018-10-16T07:39:52.915Z,98319.03
2018-10-16T07:42:22.500Z,98326.24
2018-10-16T07:44:51.462Z,98323.72
2018-10-16T07:47:20.270Z,98333.80
2018-10-16T07:49:49.034Z,98334.11
2018-10-16T07:52:17.842Z,98332.09
2018-10-16T07:54:47.303Z,98338.58
2018-10-16T07:57:16.757Z,98335.48
2018-10-16T07:59:45.390Z,98334.56
2018-10-16T08:02:15.108Z,98344.59
2018-10-16T08:04:44.253Z,98340.22
2018-10-16T08:07:13.053Z,98345.11
2018-10-16T08:09:41.807Z,98342.16
2018-10-16T08:12:10.999Z,98337.23
2018-10-16T08:14:41.285Z,98343.83
2018-10-16T08:17:09.988Z,98350.69
2018-10-16T08:19:38.538Z,98352.39
2018-10-16T08:22:07.358Z,98348.39
2018-10-16T08:24:36.982Z,98347.94
2018-10-16T08:27:06.177Z,98350.06
2018-10-16T08:29:35.028Z,98344.37
2018-10-16T08:32:04.636Z,98345.31
2018-10-16T08:34:33.416Z,98348.60
2018-10-16T08:37:02.132Z,98347.04
2018-10-16T08:39:33.402Z,98343.83
2018-10-16T08:43:40.090Z,98344.26
2018-10-16T08:46:20.012Z,98334.77
2018-10-16T08:49:00.175Z,98341.08
2018-10-16T08:51:48.162Z,98344.39
2018-10-16T08:54:16.958Z,98341.92
2018-10-16T08:56:46.255Z,98341.80
2018-10-16T08:59:15.008Z,98337.16
2018-10-16T09:01:43.819Z,98342.84
2018-10-16T09:04:12.937Z,98337.05
2018-10-16T09:06:41.643Z,98336.56
2018-10-16T09:09:13.349Z,98329.83
2018-10-16T09:11:43.560Z,98330.05
2018-10-16T09:14:12.723Z,98328.91
2018-10-16T09:16:41.595Z,98329.91
2018-10-16T09:19:11.134Z,98329.44
2018-10-16T09:21:39.959Z,98330.17
2018-10-16T09:24:08.630Z,98332.98
2018-10-16T09:26:37.430Z,98330.35
2018-10-16T09:29:07.178Z,98330.55
2018-10-16T09:31:36.251Z,98321.75
2018-10-16T09:34:05.449Z,98328.91
2018-10-16T09:36:34.738Z,98328.86
2018-10-16T09:39:03.775Z,98330.20
2018-10-16T09:41:32.923Z,98330.39
2018-10-16T09:44:02.005Z,98327.02
2018-10-16T09:46:35.528Z,98329.91
2018-10-16T09:49:04.676Z,98328.71
2018-10-16T09:51:34.013Z,98328.14
2018-10-16T09:54:03.179Z,98324.00
2018-10-16T09:56:32.348Z,98331.34
2018-10-16T09:59:00.283Z,98324.84
2018-10-16T10:01:33.613Z,98325.34
2018-10-16T10:04:01.849Z,98323.15
2018-10-16T10:06:30.299Z,98324.75
2018-10-16T10:08:59.505Z,98323.39
2018-10-16T10:11:29.675Z,98324.14
2018-10-16T10:13:58.054Z,98322.88
2018-10-16T10:16:26.533Z,98322.06
2018-10-16T10:18:54.365Z,98319.88
2018-10-16T10:21:22.922Z,98322.83
2018-10-16T10:23:50.905Z,98317.87
2018-10-16T10:26:19.193Z,98317.23
2018-10-16T10:28:47.239Z,98316.91
2018-10-16T10:31:15.426Z,98315.98
2018-10-16T10:33:43.870Z,98315.38
2018-10-16T10:36:11.935Z,98311.80
2018-10-16T10:38:40.973Z,98307.75
2018-10-16T10:41:09.854Z,98302.19
2018-10-16T10:43:37.985Z,98297.02
2018-10-16T10:46:07.632Z,98298.66
2018-10-16T10:48:36.198Z,98289.88
2018-10-16T10:51:06.265Z,98291.50
2018-10-16T10:53:35.701Z,98286.73
2018-10-16T10:56:04.835Z,98289.69
2018-10-16T10:58:33.549Z,98277.95
2018-10-16T11:01:02.530Z,98283.89
2018-10-16T11:03:31.566Z,98279.47
2018-10-16T11:06:00.710Z,98278.45
2018-10-16T11:08:30.362Z,98289.18
2018-10-16T11:10:59.284Z,98282.08
2018-10-16T11:13:29.368Z,98281.72
2018-10-16T11:15:58.184Z,98275.15
2018-10-16T11:18:26.974Z,98282.77
2018-10-16T11:20:56.272Z,98269.63
2018-10-16T11:23:24.310Z,98269.61
2018-10-16T11:25:53.814Z,98274.81
2018-10-16T11:28:22.481Z,98267.53
2018-10-16T11:30:52.144Z,98269.02
2018-10-16T11:33:21.414Z,98266.36
2018-10-16T11:35:50.138Z,98264.52
2018-10-16T11:38:19.727Z,98260.35
2018-10-16T11:40:48.592Z,98257.67
2018-10-16T11:43:17.367Z,98252.73
2018-10-16T11:45:46.941Z,98253.92
2018-10-16T11:48:15.606Z,98252.58
2018-10-16T11:50:44.969Z,98256.30
2018-10-16T11:53:15.092Z,98259.45
2018-10-16T11:55:44.258Z,98249.30
2018-10-16T11:58:13.589Z,98254.27
2018-10-16T12:00:42.729Z,98254.61
2018-10-16T12:03:11.729Z,98244.34
2018-10-16T12:05:41.158Z,98243.20
2018-10-16T12:08:10.602Z,98247.16
2018-10-16T12:10:39.547Z,98240.33
2018-10-16T12:13:08.982Z,98244.25
2018-10-16T12:15:38.228Z,98239.23
2018-10-16T12:18:12.709Z,98240.78
2018-10-16T12:20:44.667Z,98237.30
2018-10-16T12:23:13.513Z,98244.66
2018-10-16T12:25:42.686Z,98240.52
2018-10-16T12:28:14.750Z,98244.06
2018-10-16T12:30:44.081Z,98241.98
2018-10-16T12:33:13.785Z,98236.03
2018-10-16T12:35:42.510Z,98229.97
2018-10-16T12:38:11.401Z,98223.52
2018-10-16T12:40:40.152Z,98231.30
2018-10-16T12:43:09.372Z,98229.02
2018-10-16T12:45:38.461Z,98224.02
2018-10-16T12:48:07.814Z,98229.77
2018-10-16T12:50:37.009Z,98218.66
2018-10-16T12:53:06.328Z,98221.84
2018-10-16T12:55:35.616Z,98226.02
2018-10-16T12:58:05.250Z,98215.61
2018-10-16T13:00:34.861Z,98220.02
2018-10-16T13:03:03.971Z,98226.59
2018-10-16T13:05:33.196Z,98215.81
2018-10-16T13:08:02.000Z,98214.37
2018-10-16T13:10:30.735Z,98217.34
2018-10-16T13:12:59.896Z,98211.71
2018-10-16T13:15:29.199Z,98211.58
2018-10-16T13:17:57.921Z,98212.06
2018-10-16T13:20:26.541Z,98216.48
2018-10-16T13:22:55.928Z,98220.20
2018-10-16T13:25:24.990Z,98206.41
2018-10-16T13:27:54.523Z,98210.08
2018-10-16T13:30:24.599Z,98210.41
2018-10-16T13:32:53.426Z,98210.47
2018-10-16T13:35:22.870Z,98208.69
2018-10-16T13:37:52.018Z,98203.02
2018-10-16T13:40:20.920Z,98207.06
2018-10-16T13:42:49.992Z,98206.14
2018-10-16T13:45:18.799Z,98212.88
2018-10-16T13:47:47.568Z,98205.69
2018-10-16T13:50:17.172Z,98207.64
2018-10-16T13:52:46.618Z,98207.02
2018-10-16T13:55:15.674Z,98203.23
2018-10-16T13:57:44.835Z,98207.73
2018-10-16T14:00:18.264Z,98203.94
2018-10-16T14:02:48.284Z,98201.61
2018-10-16T14:05:17.120Z,98203.81
2018-10-16T14:07:46.762Z,98207.75
2018-10-16T14:10:16.436Z,98207.50
2018-10-16T14:12:46.284Z,98205.78
2018-10-16T14:15:16.290Z,98208.33
2018-10-16T14:17:45.300Z,98202.08
2018-10-16T14:20:15.057Z,98204.28
2018-10-16T14:22:44.161Z,98198.03
2018-10-16T14:25:14.106Z,98206.89
2018-10-16T14:27:44.501Z,98200.67
2018-10-16T14:30:15.554Z,98198.20
2018-10-16T14:32:44.741Z,98199.92
2018-10-16T14:35:14.478Z,98196.22
2018-10-16T14:37:43.297Z,98195.61
2018-10-16T14:40:13.970Z,98199.54
2018-10-16T14:42:43.085Z,98200.92
2018-10-16T14:45:12.984Z,98203.28
2018-10-16T14:47:41.684Z,98205.34
2018-10-16T14:50:12.019Z,98202.48
2018-10-16T14:52:40.679Z,98205.18
2018-10-16T14:55:10.554Z,98198.70
2018-10-16T14:57:40.147Z,98191.41
2018-10-16T15:00:11.034Z,98193.34
2018-10-16T15:02:39.936Z,98187.06
2018-10-16T15:05:09.840Z,98187.53
2018-10-16T15:07:38.775Z,98185.77
2018-10-16T15:10:08.564Z,98186.99
2018-10-16T15:12:38.178Z,98182.67
2018-10-16T15:15:08.964Z,98182.89
2018-10-16T15:17:38.546Z,98183.86
2018-10-16T15:20:09.320Z,98184.59
2018-10-16T15:22:38.120Z,98182.97
2018-10-16T15:25:08.347Z,98186.09
2018-10-16T15:27:37.424Z,98175.88
2018-10-16T15:30:07.931Z,98178.42
2018-10-16T15:32:36.900Z,98183.29
2018-10-16T15:35:07.389Z,98190.73
2018-10-16T15:37:35.506Z,98188.88
2018-10-16T15:40:04.651Z,98187.65
2018-10-16T15:42:33.798Z,98198.94
2018-10-16T15:45:02.915Z,98197.34
2018-10-16T15:47:31.857Z,98190.67
2018-10-16T15:50:01.438Z,98191.42
2018-10-16T15:52:30.411Z,98186.84
2018-10-16T15:54:59.367Z,98195.63
2018-10-16T15:57:28.129Z,98192.92
2018-10-16T15:59:57.233Z,98200.37
2018-10-16T16:02:26.705Z,98202.54
2018-10-16T16:04:55.823Z,98206.62
2018-10-16T16:07:24.578Z,98209.20
2018-10-16T16:09:54.385Z,98213.04
2018-10-16T16:12:23.450Z,98218.69
2018-10-16T16:14:52.356Z,98216.55
2018-10-16T16:17:22.230Z,98221.16
2018-10-16T16:19:51.254Z,98225.44
2018-10-16T16:22:20.224Z,98223.11
2018-10-16T16:24:49.493Z,98230.39
2018-10-16T16:27:19.612Z,98236.82
2018-10-16T16:29:49.893Z,98232.45
2018-10-16T16:32:19.113Z,98232.52
2018-10-16T16:34:48.302Z,98239.38
2018-10-16T16:37:17.542Z,98230.52
2018-10-16T16:39:46.376Z,98232.19
2018-10-16T16:42:15.038Z,98232.91
2018-10-16T16:44:44.556Z,98230.16
2018-10-16T16:47:13.550Z,98232.50
2018-10-16T16:49:42.285Z,98237.16
2018-10-16T16:52:11.913Z,98235.45
2018-10-16T16:54:40.869Z,98234.97
2018-10-16T16:57:09.711Z,98236.62
2018-10-16T16:59:38.545Z,98242.54
2018-10-16T17:02:08.724Z,98237.26
2018-10-16T17:04:38.285Z,98242.88
2018-10-16T17:07:07.212Z,98249.28
2018-10-16T17:09:36.975Z,98253.93
2018-10-16T17:12:06.838Z,98255.28
2018-10-16T17:14:35.796Z,98260.54
2018-10-16T17:17:04.956Z,98260.95
2018-10-16T17:19:34.430Z,98261.63
2018-10-16T17:22:03.688Z,98267.75
2018-10-16T17:24:32.733Z,98267.94
2018-10-16T17:27:01.652Z,98267.95
2018-10-16T17:29:30.313Z,98268.77
2018-10-16T17:31:59.542Z,98264.95
2018-10-16T17:34:28.571Z,98273.49
2018-10-16T17:36:57.610Z,98273.49
2018-10-16T17:39:27.230Z,98277.68
2018-10-16T17:41:56.351Z,98275.84
2018-10-16T17:44:25.541Z,98280.40
2018-10-16T17:52:37.578Z,98282.75
2018-10-16T17:55:07.436Z,98289.77
2018-10-16T17:57:37.081Z,98293.59
2018-10-16T18:00:08.826Z,98296.94
2018-10-16T18:02:38.592Z,98296.03
2018-10-16T18:05:07.471Z,98301.11
2018-10-16T18:07:36.682Z,98301.28
2018-10-16T18:10:06.217Z,98298.83
2018-10-16T18:12:35.519Z,98304.97
2018-10-16T18:15:05.218Z,98306.75
2018-10-16T18:17:34.575Z,98316.45
2018-10-16T18:20:03.967Z,98314.73
2018-10-16T18:22:33.060Z,98309.26
2018-10-16T18:25:02.385Z,98316.19
2018-10-16T18:27:31.538Z,98309.09
2018-10-16T18:30:00.798Z,98311.54
2018-10-16T18:32:30.296Z,98309.52
2018-10-16T18:34:59.336Z,98307.84
2018-10-16T18:37:28.530Z,98301.04
2018-10-16T18:39:57.960Z,98311.54
2018-10-16T18:42:27.022Z,98301.30
2018-10-16T18:44:56.394Z,98298.89
2018-10-16T18:47:26.209Z,98303.59
2018-10-16T18:49:55.216Z,98305.62
2018-10-16T18:52:25.027Z,98301.99
2018-10-16T18:54:54.027Z,98299.77
2018-10-16T18:57:22.714Z,98301.13
2018-10-16T18:59:52.753Z,98312.64
2018-10-16T19:02:21.932Z,98304.73
2018-10-16T19:04:50.870Z,98314.64
2018-10-16T19:07:19.937Z,98313.23
2018-10-16T19:09:49.299Z,98322.27
2018-10-16T19:12:18.273Z,98320.38
2018-10-16T19:14:47.512Z,98323.88
2018-10-16T19:17:16.740Z,98322.88
2018-10-16T19:19:46.081Z,98326.59
2018-10-16T19:22:15.575Z,98319.46
2018-10-16T19:24:44.811Z,98323.64
2018-10-16T19:27:13.865Z,98328.29
2018-10-16T19:29:42.836Z,98327.52
2018-10-16T19:32:12.341Z,98324.70
2018-10-16T19:34:41.135Z,98329.35
2018-10-16T19:37:10.856Z,98334.40
2018-10-16T19:39:40.003Z,98334.40
2018-10-16T19:42:08.963Z,98336.49
2018-10-16T19:44:38.643Z,98338.63
2018-10-16T19:47:07.788Z,98344.03
2018-10-16T19:49:37.147Z,98342.71
2018-10-16T19:52:06.468Z,98341.91
2018-10-16T19:54:35.513Z,98343.73
2018-10-16T19:57:04.781Z,98339.59
2018-10-16T19:59:34.477Z,98333.34
2018-10-16T20:02:03.338Z,98339.02
2018-10-16T20:04:32.488Z,98336.66
2018-10-16T20:07:01.810Z,98335.19
2018-10-16T20:09:30.933Z,98334.53
2018-10-16T20:12:00.129Z,98340.35
2018-10-16T20:14:29.111Z,98343.41
2018-10-16T20:16:58.122Z,98344.64
2018-10-16T20:19:27.311Z,98338.16
2018-10-16T20:21:56.532Z,98343.47
2018-10-16T20:24:25.591Z,98343.52
2018-10-16T20:26:54.695Z,98346.71
2018-10-16T20:29:23.708Z,98341.88
2018-10-16T20:31:52.774Z,98340.52
2018-10-16T20:34:22.944Z,98344.95
2018-10-16T20:36:52.185Z,98355.25
2018-10-16T20:39:21.039Z,98348.74
2018-10-16T20:41:50.620Z,98346.34
2018-10-16T20:44:19.613Z,98351.20
2018-10-16T20:46:48.669Z,98354.78
2018-10-16T20:49:18.208Z,98353.66
2018-10-16T20:51:47.521Z,98351.11
2018-10-16T20:54:16.833Z,98347.66
2018-10-16T20:56:45.989Z,98351.28
2018-10-16T20:59:16.135Z,98352.59
2018-10-16T21:01:46.351Z,98365.82
2018-10-16T21:04:15.569Z,98373.41
2018-10-16T21:06:45.003Z,98369.09
2018-10-16T21:09:13.608Z,98370.47
2018-10-16T21:11:43.479Z,98372.30
2018-10-16T21:14:12.411Z,98368.29
2018-10-16T21:16:41.546Z,98372.34
2018-10-16T21:19:11.484Z,98367.49
2018-10-16T21:21:39.978Z,98367.52
2018-10-16T21:24:09.232Z,98362.78
2018-10-16T21:26:37.923Z,98363.72
2018-10-16T21:29:06.966Z,98364.28
2018-10-16T21:31:36.087Z,98366.20
2018-10-16T21:34:05.289Z,98363.76
2018-10-16T21:36:34.587Z,98360.80
2018-10-16T21:39:06.312Z,98359.69
2018-10-16T21:41:35.750Z,98358.02
2018-10-16T21:44:05.091Z,98355.89
2018-10-16T21:46:34.512Z,98352.98
2018-10-16T21:49:03.704Z,98352.23
2018-10-16T21:51:33.649Z,98354.94
2018-10-16T21:54:02.516Z,98353.05
2018-10-16T21:56:32.166Z,98358.97
2018-10-16T21:59:01.948Z,98353.09
2018-10-16T22:01:36.083Z,98348.00
2018-10-16T22:04:05.834Z,98355.31
2018-10-16T22:06:36.292Z,98349.14
2018-10-16T22:09:07.507Z,98349.47
2018-10-16T22:11:36.496Z,98349.53
2018-10-16T22:14:06.047Z,98348.19
2018-10-16T22:16:35.703Z,98358.67
2018-10-16T22:19:04.989Z,98347.37
2018-10-16T22:21:33.696Z,98354.98
2018-10-16T22:24:02.916Z,98345.80
2018-10-16T22:26:31.985Z,98342.30
2018-10-16T22:29:01.221Z,98342.34
2018-10-16T22:31:30.222Z,98345.50
2018-10-16T22:33:59.539Z,98343.34
2018-10-16T22:36:28.350Z,98346.63
2018-10-16T22:38:57.306Z,98347.48
2018-10-16T22:41:27.067Z,98347.77
2018-10-16T22:43:56.238Z,98344.56
2018-10-16T22:46:25.048Z,98345.09
2018-10-16T22:48:53.788Z,98338.36
2018-10-16T22:51:22.452Z,98345.89
2018-10-16T22:53:51.103Z,98351.53
2018-10-16T22:56:20.382Z,98351.24
2018-10-16T22:58:50.772Z,98348.84
2018-10-16T23:01:21.145Z,98356.92
2018-10-16T23:03:50.992Z,98349.13
2018-10-16T23:06:20.646Z,98360.95
2018-10-16T23:08:50.544Z,98356.91
2018-10-16T23:11:19.613Z,98359.64
2018-10-16T23:13:49.892Z,98358.86
2018-10-16T23:16:19.028Z,98358.58
2018-10-16T23:18:48.271Z,98356.98
2018-10-16T23:21:17.034Z,98359.67
2018-10-16T23:23:45.724Z,98361.29
2018-10-16T23:26:16.108Z,98355.63
2018-10-16T23:28:45.017Z,98356.44
2018-10-16T23:31:17.699Z,98356.47
2018-10-16T23:33:46.444Z,98368.83
2018-10-16T23:36:15.671Z,98370.97
2018-10-16T23:38:45.412Z,98376.63
2018-10-16T23:41:14.111Z,98377.97
2018-10-16T23:43:43.188Z,98365.88
2018-10-16T23:46:12.064Z,98369.37
2018-10-16T23:48:40.748Z,98372.06
2018-10-16T23:51:09.652Z,98370.73
2018-10-16T23:53:38.415Z,98365.35
2018-10-16T23:56:07.361Z,98375.56
2018-10-16T23:58:36.418Z,98377.98
